METAR Data
IDs: Format: Raw Decoded Include TAF

Data at: 0018 UTC 26 Oct 2021

KDHT 252353Z AUTO 19013KT 10SM CLR 27/M03 A2987 RMK AO2 SLP074 T02671028 10311 20244 55006
KDHT 252253Z AUTO 20015KT 10SM CLR 29/M01 A2987 RMK AO2 PK WND 20029/2205 SLP069 T02941011
KDHT 252153Z AUTO 21019G27KT 10SM CLR 31/M01 A2988 RMK AO2 PK WND 20031/2102 SLP068 T03061011
KDHT 252053Z AUTO 22022G29KT 10SM CLR 31/M01 A2989 RMK AO2 PK WND 22032/2038 SLP072 T03061011 56026
KDHT 251953Z AUTO 21019G28KT 10SM CLR 29/M02 A2991 RMK AO2 PK WND 20028/1947 SLP082 T02891022
KDHT 251853Z AUTO 22015KT 10SM CLR 27/M01 A2995 RMK AO2 SLP094 T02671011
KDHT 251753Z AUTO 19015KT 10SM CLR 24/M01 A2997 RMK AO2 SLP107 T02441011 10244 20056 58013
KDHT 251653Z AUTO 20012KT 10SM CLR 21/01 A2999 RMK AO2 SLP119 T02060006
KDHT 251553Z AUTO 18010KT 10SM CLR 18/02 A3001 RMK AO2 SLP125 T01780022
KDHT 251453Z AUTO 18010KT 10SM CLR 16/03 A3002 RMK AO2 SLP130 T01560028 50005
KDHT 251353Z AUTO 20003KT 10SM CLR 07/03 A3002 RMK AO2 SLP143 T00720033
KDHT 251253Z AUTO 00000KT 10SM CLR 07/03 A3001 RMK AO2 SLP137 T00720028
KDHT 251153Z AUTO 24005KT 10SM CLR 06/02 A3000 RMK AO2 SLP129 T00610022 10117 20056 53001
KDHT 251053Z AUTO 23006KT 9SM CLR 07/03 A2999 RMK AO2 SLP120 T00720033
KDHT 250953Z AUTO 23003KT 10SM CLR 09/03 A2999 RMK AO2 SLP118 T00890033
KDHT 250853Z AUTO 00000KT 10SM CLR 09/03 A3000 RMK AO2 SLP119 T00940033 55001
KDHT 250753Z AUTO 16006KT 10SM CLR 09/03 A3000 RMK AO2 SLP119 T00940028
KDHT 250653Z AUTO 13008KT 10SM CLR 11/03 A3000 RMK AO2 SLP121 T01110033
KDHT 250553Z AUTO 16009KT 10SM CLR 11/03 A3000 RMK AO2 SLP122 T01060028 10200 20100 402440078 51013
KDHT 250453Z AUTO 14009KT 10SM CLR 12/03 A3000 RMK AO2 SLP121 T01170028
KDHT 250353Z AUTO 12010KT 10SM CLR 14/02 A2998 RMK AO2 SLP113 T01390022
KDHT 250253Z AUTO 11010KT 10SM CLR 14/02 A2996 RMK AO2 SLP113 T01390022 51011
KDHT 250153Z AUTO 11008KT 10SM CLR 14/01 A2996 RMK AO2 SLP114 T01390011
KDHT 250053Z AUTO 12009KT 10SM CLR 16/01 A2994 RMK AO2 SLP109 T01560006
KDHT 242353Z AUTO 12008KT 10SM CLR 20/01 A2993 RMK AO2 SLP098 T02000006 10244 20200 53009
KDHT 242253Z AUTO VRB03KT 10SM CLR 23/M01 A2991 RMK AO2 SLP087 T02331011
KDHT 242153Z AUTO 04003KT 10SM CLR 24/M01 A2991 RMK AO2 SLP086 T02391006
KDHT 242053Z AUTO 32009G14KT 10SM CLR 24/00 A2990 RMK AO2 SLP077 T02390000 56016
KDHT 241953Z AUTO VRB03KT 10SM CLR 22/01 A2991 RMK AO2 SLP083 T02220006
KDHT 241853Z AUTO 03005KT 10SM CLR 22/02 A2993 RMK AO2 SLP089 T02220017
KDHT 241753Z AUTO 36008KT 10SM CLR 21/03 A2995 RMK AO2 SLP095 T02110028 10217 20083 51016
KDHT 241653Z AUTO 02012KT 10SM CLR 21/02 A2993 RMK AO2 SLP096 T02060017
KDHT 241553Z AUTO 34010KT 10SM CLR 18/01 A2992 RMK AO2 SLP093 T01830011
KDHT 241453Z AUTO 29009KT 10SM CLR 15/M01 A2989 RMK AO2 SLP085 T01501006 53030
KDHT 241353Z AUTO 28009KT 10SM CLR 12/M02 A2984 RMK AO2 SLP072 T01171017
KDHT 241253Z AUTO 28007KT 10SM CLR 09/M03 A2981 RMK AO2 SLP058 T00891028